This is the latest recevied weather packets stored in our database for station/object GW1497. If no packets are shown the sender has not sent any weather packets the latest 10 day(s).
| Time | Temp. | Humidity | Pressure | Rain* | Wind** | Luminosity | Snow |
|---|---|---|---|---|---|---|---|
| 1778261600 | 17.78° C | 45% | 1016.2 hPa | 0 mm | - | - | - |
| 1778260180 | 15.56° C | 48% | 1016.5 hPa | 0 mm | - | - | - |
| 1778257643 | 16.67° C | 44% | 1017.2 hPa | 0 mm | - | - | - |
| 1778257290 | 16.67° C | 45% | 1017.2 hPa | 0 mm | - | - | - |
| 1778256915 | 16.11° C | 45% | 1017.2 hPa | 0 mm | - | - | - |
| 1778255470 | 15° C | 48% | 1017.6 hPa | 0 mm | - | - | - |
| 1778254066 | 15.56° C | 53% | 1017.2 hPa | 0 mm | - | - | - |
| 1778248306 | 12.22° C | 57% | 1017.6 hPa | 0 mm | - | - | - |
| 1778247922 | 12.22° C | 57% | 1017.9 hPa | 0 mm | - | - | - |
| 1778246483 | 10.56° C | 62% | 1017.9 hPa | 0 mm | - | - | - |
| 1778244686 | 9.44° C | 67% | 1017.9 hPa | 0 mm | - | - | - |
| 1778243976 | 8.89° C | 70% | 1017.9 hPa | 0 mm | - | - | - |
| 1778243630 | 8.33° C | 72% | 1017.6 hPa | 0 mm | - | - | - |
| 1778242538 | 7.78° C | 73% | 1017.6 hPa | 0 mm | - | - | - |
| 1778240719 | 6.11° C | 76% | 1017.6 hPa | 0 mm | - | - | - |
| 1778240370 | 6.11° C | 76% | 1017.6 hPa | 0 mm | - | - | - |
| 1778239997 | 5.56° C | 77% | 1017.2 hPa | 0 mm | - | - | - |
| 1778239639 | 5.56° C | 77% | 1017.2 hPa | 0 mm | - | - | - |
| 1778238562 | 4.44° C | 81% | 1017.2 hPa | 0 mm | - | - | - |
| 1778238206 | 4.44° C | 81% | 1017.2 hPa | 0 mm | - | - | - |
| 1778236035 | 3.89° C | 88% | 1016.5 hPa | 0 mm | - | - | - |
| 1778234978 | 3.89° C | 84% | 1016.2 hPa | 0 mm | - | - | - |
| 1778228510 | 2.78° C | 91% | 1016.5 hPa | 0 mm | - | - | - |
| 1778226680 | 3.89° C | 83% | 1016.5 hPa | 0 mm | - | - | - |
| 1778225607 | 4.44° C | 84% | 1016.5 hPa | 0 mm | - | - | - |
* Rain since midnight (hover to see other rain measurements)
** Current wind speed in m/s (hover to see current wind gust speed)